Brunswick, ME

09:11 EST le 22 décembre 2014 (GMT -0500)
Brunswick Police Department | Change Station
CLOSE
Current Station
Stations météorologiques personnelles
Location: Brunswick, ME
Altitude: 89 ft
Stations météo à proximité

Alt. 89 ft 43.91 °N, 69.98 °W | Updated 11 minutes ago

Couvert
Couvert
30.8 ° F
Paraît 31 ° F
N
1.0
Vent Variable Vent de SSE
Gusts 2.0 mph

Aujourd'hui
Haut(e) -- | Bas -- ° F
--% Risque de précip.
Hier
Haut(e) -- | Bas -- ° F
Precip. -- pouce
7:11 AM 4:05 PM
Nouvelle lune, 0% visible
Pression 30.45 pouce
Visibilité 10.0 Miles terrestres
Nuages Couvert 6000 ft
Refroidissement éolien 31 ° F
Point de rosée 28 ° F
Humidité 88%
Précipitations 0.00 pouce
Profondeur de la couche neigeuse Non disponible.
UV 0 sur 12
Pollen .10 sur 12
Qualité de l'air Non disponible.
Flu Activity Non disponible.
METAR KIWI 221353Z AUTO 00000KT 10SM OVC060 M01/M03 A3045 RMK AO2 SLP312 T10111033

More Conditions Fewer Conditions

Pression 30.45 pouce
Visibilité 10.0 Miles terrestres
Nuages Couvert 6000 ft
Refroidissement éolien 31 ° F
Point de rosée 28 ° F
Humidité 88%
Précipitations 0.00 pouce
Profondeur de la couche neigeuse Non disponible.
UV 0 sur 12
Pollen .10 sur 12
Qualité de l'air Non disponible.
Flu Activity Non disponible.
METAR KIWI 221353Z AUTO 00000KT 10SM OVC060 M01/M03 A3045 RMK AO2 SLP312 T10111033

More Conditions Fewer Conditions

10-Day Weather Forecast

Almanac

Astronomie

Dec. 22, 2014 Lever Coucher
Temps réel
Crépuscule civil
Crépuscule nautique
Crépuscule astronomique
Lune
Durée de lumière visible
Longueur du jour
Tomorrow will be .
, % of the Moon is Illuminated

Extrêmes aujourd'hui

State Highs State Lows

Community

WunderPhotos

Upload Photos

1,779,602 Photos téléchargées !

WunderBlogs® & News

Nearby

Qualité de l'air

  Qualité de l'air Indice de la qualité de l'air Polluant
Not available.

Épaisseur de neige

Station Depth Altitude

Activité sismique

Ville Distance Mag. Time & Date
Minimum magnitude displayed is 2.5.

Températures des eaux côtières

Lieu Température

Stations météo à proximité